Weather at Vinnu Airfield

Public forecast

Using degrees Celsius for public forecast. Weather courtesy of forecast.io.

Closest aviation weather report (METAR) to Vinnu Airfield

Closest report is Kristiansund Airport, Kvernberget, 36.0 nm (66.6 km) NW.

2024/05/20 05:50 (retrieved 35 minutes ago)

ENKB 200550Z AUTO 08004KT 040V140 9999 NCD 08/02 Q1020 RMK WIND 745FT 10007KT

Closest aviation forecast (TAF) to Vinnu Airfield

Closest forecast is Ørland Airport, 67.4 nm (124.8 km) NNE.

2024/05/20 06:36 (retrieved 0 seconds ago)

TAF ENOL 200500Z 2006/2106 11008KT 9999 FEW030 SCT200 BECMG 2011/2013 01010KT BECMG 2020/2022 09008KT